sensor_id;sensor_type;location;lat;lon;timestamp;temperature;humidity
12130;DHT22;6128;59.340;18.040;2023-12-20T00:02:19;1.70;99.90
12130;DHT22;6128;59.340;18.040;2023-12-20T00:04:48;1.70;99.90
12130;DHT22;6128;59.340;18.040;2023-12-20T00:07:15;1.70;99.90
12130;DHT22;6128;59.340;18.040;2023-12-20T00:09:42;1.70;99.90
12130;DHT22;6128;59.340;18.040;2023-12-20T00:12:10;1.70;99.90
12130;DHT22;6128;59.340;18.040;2023-12-20T00:14:37;1.70;99.90
12130;DHT22;6128;59.340;18.040;2023-12-20T00:17:04;1.70;99.90
12130;DHT22;6128;59.340;18.040;2023-12-20T00:19:32;1.70;99.90
12130;DHT22;6128;59.340;18.040;2023-12-20T00:22:00;1.70;99.90
12130;DHT22;6128;59.340;18.040;2023-12-20T00:24:27;1.60;99.90
12130;DHT22;6128;59.340;18.040;2023-12-20T00:26:54;1.60;99.90
12130;DHT22;6128;59.340;18.040;2023-12-20T00:29:21;1.60;99.90
12130;DHT22;6128;59.340;18.040;2023-12-20T00:31:48;1.60;99.90
12130;DHT22;6128;59.340;18.040;2023-12-20T00:34:15;1.60;99.90
12130;DHT22;6128;59.340;18.040;2023-12-20T00:36:43;1.60;99.90
12130;DHT22;6128;59.340;18.040;2023-12-20T00:39:11;1.60;99.90
12130;DHT22;6128;59.340;18.040;2023-12-20T00:41:38;1.50;99.90
12130;DHT22;6128;59.340;18.040;2023-12-20T00:44:08;1.50;99.90
12130;DHT22;6128;59.340;18.040;2023-12-20T00:46:38;1.50;99.90
12130;DHT22;6128;59.340;18.040;2023-12-20T00:49:08;1.50;99.90
12130;DHT22;6128;59.340;18.040;2023-12-20T00:51:35;1.50;99.90
12130;DHT22;6128;59.340;18.040;2023-12-20T00:54:02;1.50;99.90
12130;DHT22;6128;59.340;18.040;2023-12-20T00:56:34;1.40;99.90
12130;DHT22;6128;59.340;18.040;2023-12-20T00:59:02;1.40;99.90
12130;DHT22;6128;59.340;18.040;2023-12-20T01:01:29;1.40;99.90
12130;DHT22;6128;59.340;18.040;2023-12-20T01:03:56;1.40;99.90
12130;DHT22;6128;59.340;18.040;2023-12-20T01:06:23;1.40;99.90
12130;DHT22;6128;59.340;18.040;2023-12-20T01:08:50;1.40;99.90
12130;DHT22;6128;59.340;18.040;2023-12-20T01:11:17;1.40;99.90
12130;DHT22;6128;59.340;18.040;2023-12-20T01:13:45;1.40;99.90
12130;DHT22;6128;59.340;18.040;2023-12-20T01:16:12;1.40;99.90
12130;DHT22;6128;59.340;18.040;2023-12-20T01:18:39;1.40;99.90
12130;DHT22;6128;59.340;18.040;2023-12-20T01:21:07;1.40;99.90
12130;DHT22;6128;59.340;18.040;2023-12-20T01:23:34;1.30;99.90
12130;DHT22;6128;59.340;18.040;2023-12-20T01:26:01;1.30;99.90
12130;DHT22;6128;59.340;18.040;2023-12-20T01:28:28;1.30;99.90
12130;DHT22;6128;59.340;18.040;2023-12-20T01:30:57;1.30;99.90
12130;DHT22;6128;59.340;18.040;2023-12-20T01:33:24;1.20;99.90
12130;DHT22;6128;59.340;18.040;2023-12-20T01:35:51;1.30;99.90
12130;DHT22;6128;59.340;18.040;2023-12-20T01:38:18;1.20;99.90
12130;DHT22;6128;59.340;18.040;2023-12-20T01:40:45;1.20;99.90
12130;DHT22;6128;59.340;18.040;2023-12-20T01:43:13;1.20;99.90
12130;DHT22;6128;59.340;18.040;2023-12-20T01:45:40;1.20;99.90
12130;DHT22;6128;59.340;18.040;2023-12-20T01:48:09;1.20;99.90
12130;DHT22;6128;59.340;18.040;2023-12-20T01:50:37;1.10;99.90
12130;DHT22;6128;59.340;18.040;2023-12-20T01:53:05;1.10;99.90
12130;DHT22;6128;59.340;18.040;2023-12-20T01:55:36;1.10;99.90
12130;DHT22;6128;59.340;18.040;2023-12-20T01:58:05;1.10;99.90
12130;DHT22;6128;59.340;18.040;2023-12-20T02:00:33;1.10;99.90
12130;DHT22;6128;59.340;18.040;2023-12-20T02:03:01;1.00;99.90
12130;DHT22;6128;59.340;18.040;2023-12-20T02:05:30;1.00;99.90
12130;DHT22;6128;59.340;18.040;2023-12-20T02:07:57;1.00;99.90
12130;DHT22;6128;59.340;18.040;2023-12-20T02:10:24;1.00;99.90
12130;DHT22;6128;59.340;18.040;2023-12-20T02:12:52;1.00;99.90
12130;DHT22;6128;59.340;18.040;2023-12-20T02:15:19;1.00;99.90
12130;DHT22;6128;59.340;18.040;2023-12-20T02:17:47;1.00;99.90
12130;DHT22;6128;59.340;18.040;2023-12-20T02:20:15;1.00;99.90
12130;DHT22;6128;59.340;18.040;2023-12-20T02:22:43;1.00;99.90
12130;DHT22;6128;59.340;18.040;2023-12-20T02:25:11;1.00;99.90
12130;DHT22;6128;59.340;18.040;2023-12-20T02:27:38;1.00;99.90
12130;DHT22;6128;59.340;18.040;2023-12-20T02:30:06;1.00;99.90
12130;DHT22;6128;59.340;18.040;2023-12-20T02:32:33;1.00;99.90
12130;DHT22;6128;59.340;18.040;2023-12-20T02:35:01;1.00;99.90
12130;DHT22;6128;59.340;18.040;2023-12-20T02:37:28;1.00;99.90
12130;DHT22;6128;59.340;18.040;2023-12-20T02:39:56;1.00;99.90
12130;DHT22;6128;59.340;18.040;2023-12-20T02:42:23;1.00;99.90
12130;DHT22;6128;59.340;18.040;2023-12-20T02:44:50;1.00;99.90
12130;DHT22;6128;59.340;18.040;2023-12-20T02:47:17;1.00;99.90
12130;DHT22;6128;59.340;18.040;2023-12-20T02:49:44;1.00;99.90
12130;DHT22;6128;59.340;18.040;2023-12-20T02:52:11;1.00;99.90
12130;DHT22;6128;59.340;18.040;2023-12-20T02:54:38;1.00;99.90
12130;DHT22;6128;59.340;18.040;2023-12-20T02:57:07;1.00;99.90
12130;DHT22;6128;59.340;18.040;2023-12-20T02:59:34;1.10;99.90
12130;DHT22;6128;59.340;18.040;2023-12-20T03:02:04;1.10;99.90
12130;DHT22;6128;59.340;18.040;2023-12-20T03:04:31;1.10;99.90
12130;DHT22;6128;59.340;18.040;2023-12-20T03:06:58;1.10;99.90
12130;DHT22;6128;59.340;18.040;2023-12-20T03:09:25;1.10;99.90
12130;DHT22;6128;59.340;18.040;2023-12-20T03:11:53;1.10;99.90
12130;DHT22;6128;59.340;18.040;2023-12-20T03:14:21;1.10;99.90
12130;DHT22;6128;59.340;18.040;2023-12-20T03:16:49;1.10;99.90
12130;DHT22;6128;59.340;18.040;2023-12-20T03:19:18;1.20;99.90
12130;DHT22;6128;59.340;18.040;2023-12-20T03:21:45;1.10;99.90
12130;DHT22;6128;59.340;18.040;2023-12-20T03:24:12;1.10;99.90
12130;DHT22;6128;59.340;18.040;2023-12-20T03:26:39;1.10;99.90
12130;DHT22;6128;59.340;18.040;2023-12-20T03:29:06;1.10;99.90
12130;DHT22;6128;59.340;18.040;2023-12-20T03:31:35;1.10;99.90
12130;DHT22;6128;59.340;18.040;2023-12-20T03:34:02;1.10;99.90
12130;DHT22;6128;59.340;18.040;2023-12-20T03:36:29;1.10;99.90
12130;DHT22;6128;59.340;18.040;2023-12-20T03:38:56;1.10;99.90
12130;DHT22;6128;59.340;18.040;2023-12-20T03:41:23;1.10;99.90
12130;DHT22;6128;59.340;18.040;2023-12-20T03:43:50;1.10;99.90
12130;DHT22;6128;59.340;18.040;2023-12-20T03:46:17;1.10;99.90
12130;DHT22;6128;59.340;18.040;2023-12-20T03:48:46;1.20;99.90
12130;DHT22;6128;59.340;18.040;2023-12-20T03:51:13;1.20;99.90
12130;DHT22;6128;59.340;18.040;2023-12-20T03:53:40;1.20;99.90
12130;DHT22;6128;59.340;18.040;2023-12-20T03:56:07;1.20;99.90
12130;DHT22;6128;59.340;18.040;2023-12-20T03:58:34;1.20;99.90
12130;DHT22;6128;59.340;18.040;2023-12-20T04:01:01;1.20;99.90
12130;DHT22;6128;59.340;18.040;2023-12-20T04:03:28;1.20;99.90
12130;DHT22;6128;59.340;18.040;2023-12-20T04:05:56;1.30;99.90
12130;DHT22;6128;59.340;18.040;2023-12-20T04:08:23;1.30;99.90
12130;DHT22;6128;59.340;18.040;2023-12-20T04:10:50;1.40;99.90
12130;DHT22;6128;59.340;18.040;2023-12-20T04:13:17;1.40;99.90
12130;DHT22;6128;59.340;18.040;2023-12-20T04:15:44;1.40;99.90
12130;DHT22;6128;59.340;18.040;2023-12-20T04:18:11;1.40;99.90
12130;DHT22;6128;59.340;18.040;2023-12-20T04:20:38;1.50;99.90
12130;DHT22;6128;59.340;18.040;2023-12-20T04:23:07;1.50;99.90
12130;DHT22;6128;59.340;18.040;2023-12-20T04:25:34;1.50;99.90
12130;DHT22;6128;59.340;18.040;2023-12-20T04:28:02;1.40;99.90
12130;DHT22;6128;59.340;18.040;2023-12-20T04:30:29;1.40;99.90
12130;DHT22;6128;59.340;18.040;2023-12-20T04:32:56;1.30;99.90
12130;DHT22;6128;59.340;18.040;2023-12-20T04:35:23;1.30;99.90
12130;DHT22;6128;59.340;18.040;2023-12-20T04:37:50;1.30;99.90
12130;DHT22;6128;59.340;18.040;2023-12-20T04:40:19;1.20;99.90
12130;DHT22;6128;59.340;18.040;2023-12-20T04:42:46;1.20;99.90
12130;DHT22;6128;59.340;18.040;2023-12-20T04:45:13;1.10;99.90
12130;DHT22;6128;59.340;18.040;2023-12-20T04:47:42;1.10;99.90
12130;DHT22;6128;59.340;18.040;2023-12-20T04:50:09;1.00;99.90
12130;DHT22;6128;59.340;18.040;2023-12-20T04:52:38;1.00;99.90
12130;DHT22;6128;59.340;18.040;2023-12-20T04:55:06;1.00;99.90
12130;DHT22;6128;59.340;18.040;2023-12-20T04:57:36;1.00;99.90
12130;DHT22;6128;59.340;18.040;2023-12-20T05:00:04;1.00;99.90
12130;DHT22;6128;59.340;18.040;2023-12-20T05:02:34;1.00;99.90
12130;DHT22;6128;59.340;18.040;2023-12-20T05:05:01;1.00;99.90
12130;DHT22;6128;59.340;18.040;2023-12-20T05:07:28;1.00;99.90
12130;DHT22;6128;59.340;18.040;2023-12-20T05:09:56;1.00;99.90
12130;DHT22;6128;59.340;18.040;2023-12-20T05:12:23;1.00;99.90
12130;DHT22;6128;59.340;18.040;2023-12-20T05:14:52;1.00;99.90
12130;DHT22;6128;59.340;18.040;2023-12-20T05:17:19;1.00;99.90
12130;DHT22;6128;59.340;18.040;2023-12-20T05:19:47;1.10;99.90
12130;DHT22;6128;59.340;18.040;2023-12-20T05:22:14;1.10;99.90
12130;DHT22;6128;59.340;18.040;2023-12-20T05:24:41;1.10;99.90
12130;DHT22;6128;59.340;18.040;2023-12-20T05:27:08;1.00;99.90
12130;DHT22;6128;59.340;18.040;2023-12-20T05:29:35;1.00;99.90
12130;DHT22;6128;59.340;18.040;2023-12-20T05:32:04;1.00;99.90
12130;DHT22;6128;59.340;18.040;2023-12-20T05:34:31;0.90;99.90
12130;DHT22;6128;59.340;18.040;2023-12-20T05:36:58;0.90;99.90
12130;DHT22;6128;59.340;18.040;2023-12-20T05:39:27;0.90;99.90
12130;DHT22;6128;59.340;18.040;2023-12-20T05:41:54;0.90;99.90
12130;DHT22;6128;59.340;18.040;2023-12-20T05:44:21;0.90;99.90
12130;DHT22;6128;59.340;18.040;2023-12-20T05:46:48;1.00;99.90
12130;DHT22;6128;59.340;18.040;2023-12-20T05:49:17;0.90;99.90
12130;DHT22;6128;59.340;18.040;2023-12-20T05:51:44;0.90;99.90
12130;DHT22;6128;59.340;18.040;2023-12-20T05:54:11;0.90;99.90
12130;DHT22;6128;59.340;18.040;2023-12-20T05:56:38;1.00;99.90
12130;DHT22;6128;59.340;18.040;2023-12-20T05:59:06;1.00;99.90
12130;DHT22;6128;59.340;18.040;2023-12-20T06:01:33;1.00;99.90
12130;DHT22;6128;59.340;18.040;2023-12-20T06:04:00;1.00;99.90
12130;DHT22;6128;59.340;18.040;2023-12-20T06:06:30;1.10;99.90
12130;DHT22;6128;59.340;18.040;2023-12-20T06:08:57;1.10;99.90
12130;DHT22;6128;59.340;18.040;2023-12-20T06:11:24;1.10;99.90
12130;DHT22;6128;59.340;18.040;2023-12-20T06:13:51;1.10;99.90
12130;DHT22;6128;59.340;18.040;2023-12-20T06:16:19;1.10;99.90
12130;DHT22;6128;59.340;18.040;2023-12-20T06:18:46;1.10;99.90
12130;DHT22;6128;59.340;18.040;2023-12-20T06:21:16;1.10;99.90
12130;DHT22;6128;59.340;18.040;2023-12-20T06:23:44;1.10;99.90
12130;DHT22;6128;59.340;18.040;2023-12-20T06:26:12;1.10;99.90
12130;DHT22;6128;59.340;18.040;2023-12-20T06:28:39;1.10;99.90
12130;DHT22;6128;59.340;18.040;2023-12-20T06:31:06;1.10;99.90
12130;DHT22;6128;59.340;18.040;2023-12-20T06:33:33;1.10;99.90
12130;DHT22;6128;59.340;18.040;2023-12-20T06:36:00;1.10;99.90
12130;DHT22;6128;59.340;18.040;2023-12-20T06:38:27;1.10;99.90
12130;DHT22;6128;59.340;18.040;2023-12-20T06:40:56;1.10;99.90
12130;DHT22;6128;59.340;18.040;2023-12-20T06:43:24;1.10;99.90
12130;DHT22;6128;59.340;18.040;2023-12-20T06:45:51;1.20;99.90
12130;DHT22;6128;59.340;18.040;2023-12-20T06:48:18;1.20;99.90
12130;DHT22;6128;59.340;18.040;2023-12-20T06:50:46;1.20;99.90
12130;DHT22;6128;59.340;18.040;2023-12-20T06:53:13;1.30;99.90
12130;DHT22;6128;59.340;18.040;2023-12-20T06:55:40;1.30;99.90
12130;DHT22;6128;59.340;18.040;2023-12-20T06:58:09;1.30;99.90
12130;DHT22;6128;59.340;18.040;2023-12-20T07:00:36;1.30;99.90
12130;DHT22;6128;59.340;18.040;2023-12-20T07:03:04;1.30;99.90
12130;DHT22;6128;59.340;18.040;2023-12-20T07:05:31;1.30;99.90
12130;DHT22;6128;59.340;18.040;2023-12-20T07:07:58;1.20;99.90
12130;DHT22;6128;59.340;18.040;2023-12-20T07:10:25;1.30;99.90
12130;DHT22;6128;59.340;18.040;2023-12-20T07:12:53;1.30;99.90
12130;DHT22;6128;59.340;18.040;2023-12-20T07:15:22;1.30;99.90
12130;DHT22;6128;59.340;18.040;2023-12-20T07:17:49;1.30;99.90
12130;DHT22;6128;59.340;18.040;2023-12-20T07:20:16;1.40;99.90
12130;DHT22;6128;59.340;18.040;2023-12-20T07:22:43;1.40;99.90
12130;DHT22;6128;59.340;18.040;2023-12-20T07:25:11;1.40;99.90
12130;DHT22;6128;59.340;18.040;2023-12-20T07:27:38;1.40;99.90
12130;DHT22;6128;59.340;18.040;2023-12-20T07:30:06;1.40;99.90
12130;DHT22;6128;59.340;18.040;2023-12-20T07:32:34;1.40;99.90
12130;DHT22;6128;59.340;18.040;2023-12-20T07:35:02;1.50;99.90
12130;DHT22;6128;59.340;18.040;2023-12-20T07:37:29;1.50;99.90
12130;DHT22;6128;59.340;18.040;2023-12-20T07:39:56;1.40;99.90
12130;DHT22;6128;59.340;18.040;2023-12-20T07:42:23;1.40;99.90
12130;DHT22;6128;59.340;18.040;2023-12-20T07:44:50;1.40;99.90
12130;DHT22;6128;59.340;18.040;2023-12-20T07:47:17;1.50;99.90
12130;DHT22;6128;59.340;18.040;2023-12-20T07:49:48;1.50;99.90
12130;DHT22;6128;59.340;18.040;2023-12-20T07:52:17;1.50;99.90
12130;DHT22;6128;59.340;18.040;2023-12-20T07:54:44;1.50;99.90
12130;DHT22;6128;59.340;18.040;2023-12-20T07:57:11;1.50;99.90
12130;DHT22;6128;59.340;18.040;2023-12-20T07:59:38;1.50;99.90
12130;DHT22;6128;59.340;18.040;2023-12-20T08:02:06;1.50;99.90
12130;DHT22;6128;59.340;18.040;2023-12-20T08:04:33;1.50;99.90
12130;DHT22;6128;59.340;18.040;2023-12-20T08:07:01;1.60;99.90
12130;DHT22;6128;59.340;18.040;2023-12-20T08:09:28;1.60;99.90
12130;DHT22;6128;59.340;18.040;2023-12-20T08:11:56;1.70;99.90
12130;DHT22;6128;59.340;18.040;2023-12-20T08:14:25;1.70;99.90
12130;DHT22;6128;59.340;18.040;2023-12-20T08:16:52;1.70;99.90
12130;DHT22;6128;59.340;18.040;2023-12-20T08:19:20;1.70;99.90
12130;DHT22;6128;59.340;18.040;2023-12-20T08:21:47;1.70;99.90
12130;DHT22;6128;59.340;18.040;2023-12-20T08:24:16;1.60;99.90
12130;DHT22;6128;59.340;18.040;2023-12-20T08:26:43;1.60;99.90
12130;DHT22;6128;59.340;18.040;2023-12-20T08:29:13;1.70;99.90
12130;DHT22;6128;59.340;18.040;2023-12-20T08:31:40;1.70;99.90
12130;DHT22;6128;59.340;18.040;2023-12-20T08:34:07;1.70;99.90
12130;DHT22;6128;59.340;18.040;2023-12-20T08:36:34;1.80;99.90
12130;DHT22;6128;59.340;18.040;2023-12-20T08:39:01;1.80;99.90
12130;DHT22;6128;59.340;18.040;2023-12-20T08:41:30;1.80;99.90
12130;DHT22;6128;59.340;18.040;2023-12-20T08:43:57;1.80;99.90
12130;DHT22;6128;59.340;18.040;2023-12-20T08:46:24;1.80;99.90
12130;DHT22;6128;59.340;18.040;2023-12-20T08:48:51;1.80;99.90
12130;DHT22;6128;59.340;18.040;2023-12-20T08:51:18;1.90;99.90
12130;DHT22;6128;59.340;18.040;2023-12-20T08:53:46;1.90;99.90
12130;DHT22;6128;59.340;18.040;2023-12-20T08:56:14;1.90;99.90
12130;DHT22;6128;59.340;18.040;2023-12-20T08:58:44;2.00;99.90
12130;DHT22;6128;59.340;18.040;2023-12-20T09:01:11;2.00;99.90
12130;DHT22;6128;59.340;18.040;2023-12-20T09:03:38;2.00;99.90
12130;DHT22;6128;59.340;18.040;2023-12-20T09:06:06;2.00;99.90
12130;DHT22;6128;59.340;18.040;2023-12-20T09:08:33;2.00;99.90
12130;DHT22;6128;59.340;18.040;2023-12-20T09:11:00;2.00;99.90
12130;DHT22;6128;59.340;18.040;2023-12-20T09:13:27;2.00;99.90
12130;DHT22;6128;59.340;18.040;2023-12-20T09:15:56;2.10;99.90
12130;DHT22;6128;59.340;18.040;2023-12-20T09:18:23;2.10;99.90
12130;DHT22;6128;59.340;18.040;2023-12-20T09:20:50;2.10;99.90
12130;DHT22;6128;59.340;18.040;2023-12-20T09:23:17;2.20;99.90
12130;DHT22;6128;59.340;18.040;2023-12-20T09:25:44;2.20;99.90
12130;DHT22;6128;59.340;18.040;2023-12-20T09:28:11;2.20;99.90
12130;DHT22;6128;59.340;18.040;2023-12-20T09:30:38;2.20;99.90
12130;DHT22;6128;59.340;18.040;2023-12-20T09:33:07;2.20;99.90
12130;DHT22;6128;59.340;18.040;2023-12-20T09:35:34;2.30;99.90
12130;DHT22;6128;59.340;18.040;2023-12-20T09:38:01;2.40;99.90
12130;DHT22;6128;59.340;18.040;2023-12-20T09:40:29;2.40;99.90
12130;DHT22;6128;59.340;18.040;2023-12-20T09:43:03;2.40;99.90
12130;DHT22;6128;59.340;18.040;2023-12-20T09:45:31;2.50;99.90
12130;DHT22;6128;59.340;18.040;2023-12-20T09:47:58;2.50;99.90
12130;DHT22;6128;59.340;18.040;2023-12-20T09:50:27;2.50;99.90
12130;DHT22;6128;59.340;18.040;2023-12-20T09:52:57;2.60;99.90
12130;DHT22;6128;59.340;18.040;2023-12-20T09:55:25;2.60;99.90
12130;DHT22;6128;59.340;18.040;2023-12-20T09:57:54;2.60;99.90
12130;DHT22;6128;59.340;18.040;2023-12-20T10:00:21;2.60;99.90
12130;DHT22;6128;59.340;18.040;2023-12-20T10:02:53;2.70;99.90
12130;DHT22;6128;59.340;18.040;2023-12-20T10:05:28;2.70;99.90
12130;DHT22;6128;59.340;18.040;2023-12-20T10:07:55;2.70;99.90
12130;DHT22;6128;59.340;18.040;2023-12-20T10:10:23;2.70;99.90
12130;DHT22;6128;59.340;18.040;2023-12-20T10:13:05;2.80;99.90
12130;DHT22;6128;59.340;18.040;2023-12-20T10:15:33;2.80;99.90
12130;DHT22;6128;59.340;18.040;2023-12-20T10:18:00;2.80;99.90
12130;DHT22;6128;59.340;18.040;2023-12-20T10:20:32;2.90;99.90
12130;DHT22;6128;59.340;18.040;2023-12-20T10:23:00;2.90;99.90
12130;DHT22;6128;59.340;18.040;2023-12-20T10:25:27;2.90;99.90
12130;DHT22;6128;59.340;18.040;2023-12-20T10:28:09;2.90;99.90
12130;DHT22;6128;59.340;18.040;2023-12-20T10:30:36;3.00;99.90
12130;DHT22;6128;59.340;18.040;2023-12-20T10:33:05;3.00;99.90
12130;DHT22;6128;59.340;18.040;2023-12-20T10:35:36;3.00;99.90
12130;DHT22;6128;59.340;18.040;2023-12-20T10:38:05;3.00;99.90
12130;DHT22;6128;59.340;18.040;2023-12-20T10:40:34;3.00;99.90
12130;DHT22;6128;59.340;18.040;2023-12-20T10:43:03;3.10;99.90
12130;DHT22;6128;59.340;18.040;2023-12-20T10:45:30;3.10;99.90
12130;DHT22;6128;59.340;18.040;2023-12-20T10:47:58;3.10;99.90
12130;DHT22;6128;59.340;18.040;2023-12-20T10:50:27;3.10;99.90
12130;DHT22;6128;59.340;18.040;2023-12-20T10:52:57;3.10;99.90
12130;DHT22;6128;59.340;18.040;2023-12-20T10:55:25;3.00;99.90
12130;DHT22;6128;59.340;18.040;2023-12-20T10:57:56;3.00;99.90
12130;DHT22;6128;59.340;18.040;2023-12-20T11:00:25;3.00;99.90
12130;DHT22;6128;59.340;18.040;2023-12-20T11:02:53;2.90;99.90
12130;DHT22;6128;59.340;18.040;2023-12-20T11:05:33;2.90;99.90
12130;DHT22;6128;59.340;18.040;2023-12-20T11:08:10;2.90;99.90
12130;DHT22;6128;59.340;18.040;2023-12-20T11:10:44;2.80;99.90
12130;DHT22;6128;59.340;18.040;2023-12-20T11:13:20;2.80;99.90
12130;DHT22;6128;59.340;18.040;2023-12-20T11:15:47;2.80;99.90
12130;DHT22;6128;59.340;18.040;2023-12-20T11:18:15;2.80;99.90
12130;DHT22;6128;59.340;18.040;2023-12-20T11:20:42;2.70;99.90
12130;DHT22;6128;59.340;18.040;2023-12-20T11:23:11;2.70;99.90
12130;DHT22;6128;59.340;18.040;2023-12-20T11:25:48;2.70;99.90
12130;DHT22;6128;59.340;18.040;2023-12-20T11:28:15;2.70;99.90
12130;DHT22;6128;59.340;18.040;2023-12-20T11:30:48;2.70;99.90
12130;DHT22;6128;59.340;18.040;2023-12-20T11:33:17;2.70;99.90
12130;DHT22;6128;59.340;18.040;2023-12-20T11:35:48;2.70;99.90
12130;DHT22;6128;59.340;18.040;2023-12-20T11:38:16;2.70;99.90
12130;DHT22;6128;59.340;18.040;2023-12-20T11:40:44;2.70;99.90
12130;DHT22;6128;59.340;18.040;2023-12-20T11:43:11;2.70;99.90
12130;DHT22;6128;59.340;18.040;2023-12-20T11:45:49;2.70;99.90
12130;DHT22;6128;59.340;18.040;2023-12-20T11:48:17;2.70;99.90
12130;DHT22;6128;59.340;18.040;2023-12-20T11:50:45;2.60;99.90
12130;DHT22;6128;59.340;18.040;2023-12-20T11:53:12;2.60;99.90
12130;DHT22;6128;59.340;18.040;2023-12-20T11:55:41;2.60;99.90
12130;DHT22;6128;59.340;18.040;2023-12-20T11:58:08;2.70;99.90
12130;DHT22;6128;59.340;18.040;2023-12-20T12:00:35;2.70;99.90
12130;DHT22;6128;59.340;18.040;2023-12-20T12:03:03;2.70;99.90
12130;DHT22;6128;59.340;18.040;2023-12-20T12:05:31;2.70;99.90
12130;DHT22;6128;59.340;18.040;2023-12-20T12:07:58;2.70;99.90
12130;DHT22;6128;59.340;18.040;2023-12-20T12:10:25;2.70;99.90
12130;DHT22;6128;59.340;18.040;2023-12-20T12:12:54;2.70;99.90
12130;DHT22;6128;59.340;18.040;2023-12-20T12:15:21;2.70;99.90
12130;DHT22;6128;59.340;18.040;2023-12-20T12:17:53;2.70;99.90
12130;DHT22;6128;59.340;18.040;2023-12-20T12:20:22;2.70;99.90
12130;DHT22;6128;59.340;18.040;2023-12-20T12:22:57;2.70;99.90
12130;DHT22;6128;59.340;18.040;2023-12-20T12:25:25;2.70;99.90
12130;DHT22;6128;59.340;18.040;2023-12-20T12:27:54;2.60;99.90
12130;DHT22;6128;59.340;18.040;2023-12-20T12:30:22;2.60;99.90
12130;DHT22;6128;59.340;18.040;2023-12-20T12:32:50;2.50;99.90
12130;DHT22;6128;59.340;18.040;2023-12-20T12:35:18;2.50;99.90
12130;DHT22;6128;59.340;18.040;2023-12-20T12:37:45;2.50;99.90
12130;DHT22;6128;59.340;18.040;2023-12-20T12:40:14;2.40;99.90
12130;DHT22;6128;59.340;18.040;2023-12-20T12:42:45;2.40;99.90
12130;DHT22;6128;59.340;18.040;2023-12-20T12:45:13;2.30;99.90
12130;DHT22;6128;59.340;18.040;2023-12-20T12:47:41;2.20;99.90
12130;DHT22;6128;59.340;18.040;2023-12-20T12:50:08;2.20;99.90
12130;DHT22;6128;59.340;18.040;2023-12-20T12:52:36;2.20;99.90
12130;DHT22;6128;59.340;18.040;2023-12-20T12:55:03;2.20;99.90
12130;DHT22;6128;59.340;18.040;2023-12-20T12:57:31;2.20;99.90
12130;DHT22;6128;59.340;18.040;2023-12-20T12:59:58;2.20;99.90
12130;DHT22;6128;59.340;18.040;2023-12-20T13:02:29;2.20;99.90
12130;DHT22;6128;59.340;18.040;2023-12-20T13:04:56;2.20;99.90
12130;DHT22;6128;59.340;18.040;2023-12-20T13:07:23;2.20;99.90
12130;DHT22;6128;59.340;18.040;2023-12-20T13:09:50;2.30;99.90
12130;DHT22;6128;59.340;18.040;2023-12-20T13:12:17;2.30;99.90
12130;DHT22;6128;59.340;18.040;2023-12-20T13:14:44;2.20;99.90
12130;DHT22;6128;59.340;18.040;2023-12-20T13:17:11;2.30;99.90
12130;DHT22;6128;59.340;18.040;2023-12-20T13:19:40;2.30;99.90
12130;DHT22;6128;59.340;18.040;2023-12-20T13:22:07;2.30;99.90
12130;DHT22;6128;59.340;18.040;2023-12-20T13:24:34;2.40;99.90
12130;DHT22;6128;59.340;18.040;2023-12-20T13:27:01;2.40;99.90
12130;DHT22;6128;59.340;18.040;2023-12-20T13:29:28;2.50;99.90
12130;DHT22;6128;59.340;18.040;2023-12-20T13:31:55;2.40;99.90
12130;DHT22;6128;59.340;18.040;2023-12-20T13:34:23;2.40;99.90
12130;DHT22;6128;59.340;18.040;2023-12-20T13:36:51;2.40;99.90
12130;DHT22;6128;59.340;18.040;2023-12-20T13:39:18;2.50;99.90
12130;DHT22;6128;59.340;18.040;2023-12-20T13:41:47;2.50;99.90
12130;DHT22;6128;59.340;18.040;2023-12-20T13:44:16;2.60;99.90
12130;DHT22;6128;59.340;18.040;2023-12-20T13:46:43;2.60;99.90
12130;DHT22;6128;59.340;18.040;2023-12-20T13:49:11;2.70;99.90
12130;DHT22;6128;59.340;18.040;2023-12-20T13:51:39;2.70;99.90
12130;DHT22;6128;59.340;18.040;2023-12-20T13:54:08;2.70;99.90
12130;DHT22;6128;59.340;18.040;2023-12-20T13:56:36;2.70;99.90
12130;DHT22;6128;59.340;18.040;2023-12-20T13:59:03;2.70;99.90
12130;DHT22;6128;59.340;18.040;2023-12-20T14:01:30;2.70;99.90
12130;DHT22;6128;59.340;18.040;2023-12-20T14:03:57;2.80;99.90
12130;DHT22;6128;59.340;18.040;2023-12-20T14:06:26;2.80;99.90
12130;DHT22;6128;59.340;18.040;2023-12-20T14:08:55;2.80;99.90
12130;DHT22;6128;59.340;18.040;2023-12-20T14:11:23;2.80;99.90
12130;DHT22;6128;59.340;18.040;2023-12-20T14:13:50;2.80;99.90
12130;DHT22;6128;59.340;18.040;2023-12-20T14:16:18;2.80;99.90
12130;DHT22;6128;59.340;18.040;2023-12-20T14:18:47;2.90;99.90
12130;DHT22;6128;59.340;18.040;2023-12-20T14:21:14;2.90;99.90
12130;DHT22;6128;59.340;18.040;2023-12-20T14:23:41;2.90;99.90
12130;DHT22;6128;59.340;18.040;2023-12-20T14:26:08;2.90;99.90
12130;DHT22;6128;59.340;18.040;2023-12-20T14:28:41;2.90;99.90
12130;DHT22;6128;59.340;18.040;2023-12-20T14:31:08;2.90;99.90
12130;DHT22;6128;59.340;18.040;2023-12-20T14:33:36;2.90;99.90
12130;DHT22;6128;59.340;18.040;2023-12-20T14:36:05;2.90;99.90
12130;DHT22;6128;59.340;18.040;2023-12-20T14:38:32;2.90;99.90
12130;DHT22;6128;59.340;18.040;2023-12-20T14:40:59;3.00;99.90
12130;DHT22;6128;59.340;18.040;2023-12-20T14:43:28;3.00;99.90
12130;DHT22;6128;59.340;18.040;2023-12-20T14:45:57;3.00;99.90
12130;DHT22;6128;59.340;18.040;2023-12-20T14:48:24;3.00;99.90
12130;DHT22;6128;59.340;18.040;2023-12-20T14:50:52;3.10;99.90
12130;DHT22;6128;59.340;18.040;2023-12-20T14:53:20;3.10;99.90
12130;DHT22;6128;59.340;18.040;2023-12-20T14:55:47;3.10;99.90
12130;DHT22;6128;59.340;18.040;2023-12-20T14:58:15;3.10;99.90
12130;DHT22;6128;59.340;18.040;2023-12-20T15:00:42;3.10;99.90
12130;DHT22;6128;59.340;18.040;2023-12-20T15:03:12;3.20;99.90
12130;DHT22;6128;59.340;18.040;2023-12-20T15:05:39;3.20;99.90
12130;DHT22;6128;59.340;18.040;2023-12-20T15:08:06;3.20;99.90
12130;DHT22;6128;59.340;18.040;2023-12-20T15:10:34;3.30;99.90
12130;DHT22;6128;59.340;18.040;2023-12-20T15:13:01;3.30;99.90
12130;DHT22;6128;59.340;18.040;2023-12-20T15:15:28;3.30;99.90
12130;DHT22;6128;59.340;18.040;2023-12-20T15:17:55;3.30;99.90
12130;DHT22;6128;59.340;18.040;2023-12-20T15:20:23;3.30;99.90
12130;DHT22;6128;59.340;18.040;2023-12-20T15:22:51;3.30;99.90
12130;DHT22;6128;59.340;18.040;2023-12-20T15:25:18;3.30;99.90
12130;DHT22;6128;59.340;18.040;2023-12-20T15:27:47;3.40;99.90
12130;DHT22;6128;59.340;18.040;2023-12-20T15:30:18;3.40;99.90
12130;DHT22;6128;59.340;18.040;2023-12-20T15:32:45;3.40;99.90
12130;DHT22;6128;59.340;18.040;2023-12-20T15:35:12;3.50;99.90
12130;DHT22;6128;59.340;18.040;2023-12-20T15:37:41;3.50;99.90
12130;DHT22;6128;59.340;18.040;2023-12-20T15:40:10;3.50;99.90
12130;DHT22;6128;59.340;18.040;2023-12-20T15:42:38;3.50;99.90
12130;DHT22;6128;59.340;18.040;2023-12-20T15:45:06;3.50;99.90
12130;DHT22;6128;59.340;18.040;2023-12-20T15:47:34;3.50;99.90
12130;DHT22;6128;59.340;18.040;2023-12-20T15:50:02;3.60;99.90